sensor_id;sensor_type;location;lat;lon;timestamp;temperature;humidity
25208;DHT22;13153;52.316;21.166;2023-12-04T00:01:21;-0.80;99.90
25208;DHT22;13153;52.316;21.166;2023-12-04T00:03:47;-0.80;99.90
25208;DHT22;13153;52.316;21.166;2023-12-04T00:06:13;-0.80;99.90
25208;DHT22;13153;52.316;21.166;2023-12-04T00:08:39;-0.70;99.90
25208;DHT22;13153;52.316;21.166;2023-12-04T00:11:06;-0.80;99.90
25208;DHT22;13153;52.316;21.166;2023-12-04T00:13:32;-0.80;99.90
25208;DHT22;13153;52.316;21.166;2023-12-04T00:15:58;-0.80;99.90
25208;DHT22;13153;52.316;21.166;2023-12-04T00:18:25;-0.70;99.90
25208;DHT22;13153;52.316;21.166;2023-12-04T00:20:51;-0.80;99.90
25208;DHT22;13153;52.316;21.166;2023-12-04T00:23:17;-0.70;99.90
25208;DHT22;13153;52.316;21.166;2023-12-04T00:25:43;-0.70;99.90
25208;DHT22;13153;52.316;21.166;2023-12-04T00:28:09;-0.70;99.90
25208;DHT22;13153;52.316;21.166;2023-12-04T00:30:34;-0.70;99.90
25208;DHT22;13153;52.316;21.166;2023-12-04T00:33:00;-0.70;99.90
25208;DHT22;13153;52.316;21.166;2023-12-04T00:35:26;-0.70;99.90
25208;DHT22;13153;52.316;21.166;2023-12-04T00:37:52;-0.70;99.90
25208;DHT22;13153;52.316;21.166;2023-12-04T00:40:18;-0.60;99.90
25208;DHT22;13153;52.316;21.166;2023-12-04T00:42:43;-0.70;99.90
25208;DHT22;13153;52.316;21.166;2023-12-04T00:45:09;-0.70;99.90
25208;DHT22;13153;52.316;21.166;2023-12-04T00:47:35;-0.70;99.90
25208;DHT22;13153;52.316;21.166;2023-12-04T00:50:01;-0.70;99.90
25208;DHT22;13153;52.316;21.166;2023-12-04T00:52:26;-0.70;99.90
25208;DHT22;13153;52.316;21.166;2023-12-04T00:54:52;-0.60;99.90
25208;DHT22;13153;52.316;21.166;2023-12-04T00:57:19;-0.60;99.90
25208;DHT22;13153;52.316;21.166;2023-12-04T00:59:44;-0.70;99.90
25208;DHT22;13153;52.316;21.166;2023-12-04T01:02:10;-0.70;99.90
25208;DHT22;13153;52.316;21.166;2023-12-04T01:04:38;-0.70;99.90
25208;DHT22;13153;52.316;21.166;2023-12-04T01:07:05;-0.60;99.90
25208;DHT22;13153;52.316;21.166;2023-12-04T01:09:31;-0.60;99.90
25208;DHT22;13153;52.316;21.166;2023-12-04T01:11:56;-0.60;99.90
25208;DHT22;13153;52.316;21.166;2023-12-04T01:14:22;-0.60;99.90
25208;DHT22;13153;52.316;21.166;2023-12-04T01:16:48;-0.60;99.90
25208;DHT22;13153;52.316;21.166;2023-12-04T01:19:14;-0.60;99.90
25208;DHT22;13153;52.316;21.166;2023-12-04T01:21:39;-0.60;99.90
25208;DHT22;13153;52.316;21.166;2023-12-04T01:24:05;-0.60;99.90
25208;DHT22;13153;52.316;21.166;2023-12-04T01:26:31;-0.60;99.90
25208;DHT22;13153;52.316;21.166;2023-12-04T01:28:57;-0.50;99.90
25208;DHT22;13153;52.316;21.166;2023-12-04T01:31:23;-0.50;99.90
25208;DHT22;13153;52.316;21.166;2023-12-04T01:33:49;-0.50;99.90
25208;DHT22;13153;52.316;21.166;2023-12-04T01:36:14;-0.50;99.90
25208;DHT22;13153;52.316;21.166;2023-12-04T01:38:40;-0.50;99.90
25208;DHT22;13153;52.316;21.166;2023-12-04T01:41:06;-0.50;99.90
25208;DHT22;13153;52.316;21.166;2023-12-04T01:43:32;-0.50;99.90
25208;DHT22;13153;52.316;21.166;2023-12-04T01:45:59;-0.50;99.90
25208;DHT22;13153;52.316;21.166;2023-12-04T01:48:27;-0.50;99.90
25208;DHT22;13153;52.316;21.166;2023-12-04T01:50:54;-0.50;99.90
25208;DHT22;13153;52.316;21.166;2023-12-04T01:53:22;-0.50;99.90
25208;DHT22;13153;52.316;21.166;2023-12-04T01:55:49;-0.50;99.90
25208;DHT22;13153;52.316;21.166;2023-12-04T01:58:15;-0.50;99.90
25208;DHT22;13153;52.316;21.166;2023-12-04T02:00:42;-0.50;99.90
25208;DHT22;13153;52.316;21.166;2023-12-04T02:03:08;-0.50;99.90
25208;DHT22;13153;52.316;21.166;2023-12-04T02:05:35;-0.50;99.90
25208;DHT22;13153;52.316;21.166;2023-12-04T02:08:03;-0.50;99.90
25208;DHT22;13153;52.316;21.166;2023-12-04T02:10:29;-0.50;99.90
25208;DHT22;13153;52.316;21.166;2023-12-04T02:12:55;-0.50;99.90
25208;DHT22;13153;52.316;21.166;2023-12-04T02:15:21;-0.50;99.90
25208;DHT22;13153;52.316;21.166;2023-12-04T02:17:47;-0.50;99.90
25208;DHT22;13153;52.316;21.166;2023-12-04T02:20:14;-0.50;99.90
25208;DHT22;13153;52.316;21.166;2023-12-04T02:22:40;-0.60;99.90
25208;DHT22;13153;52.316;21.166;2023-12-04T02:25:07;-0.60;99.90
25208;DHT22;13153;52.316;21.166;2023-12-04T02:27:42;-0.70;99.90
25208;DHT22;13153;52.316;21.166;2023-12-04T02:30:17;-0.70;99.90
25208;DHT22;13153;52.316;21.166;2023-12-04T02:32:46;-0.80;99.90
25208;DHT22;13153;52.316;21.166;2023-12-04T02:35:19;-0.80;99.90
25208;DHT22;13153;52.316;21.166;2023-12-04T02:37:49;-0.80;99.90
25208;DHT22;13153;52.316;21.166;2023-12-04T02:40:16;-0.80;99.90
25208;DHT22;13153;52.316;21.166;2023-12-04T02:42:42;-0.80;99.90
25208;DHT22;13153;52.316;21.166;2023-12-04T02:45:09;-0.80;99.90
25208;DHT22;13153;52.316;21.166;2023-12-04T02:47:35;-0.80;99.90
25208;DHT22;13153;52.316;21.166;2023-12-04T02:50:01;-0.80;99.90
25208;DHT22;13153;52.316;21.166;2023-12-04T02:52:27;-0.80;99.90
25208;DHT22;13153;52.316;21.166;2023-12-04T02:54:53;-0.80;99.90
25208;DHT22;13153;52.316;21.166;2023-12-04T02:57:18;-0.70;99.90
25208;DHT22;13153;52.316;21.166;2023-12-04T02:59:45;-0.70;99.90
25208;DHT22;13153;52.316;21.166;2023-12-04T03:02:11;-0.70;99.90
25208;DHT22;13153;52.316;21.166;2023-12-04T03:04:36;-0.70;99.90
25208;DHT22;13153;52.316;21.166;2023-12-04T03:07:02;-0.70;99.90
25208;DHT22;13153;52.316;21.166;2023-12-04T03:09:28;-0.70;99.90
25208;DHT22;13153;52.316;21.166;2023-12-04T03:11:54;-0.70;99.90
25208;DHT22;13153;52.316;21.166;2023-12-04T03:14:20;-0.70;99.90
25208;DHT22;13153;52.316;21.166;2023-12-04T03:16:45;-0.70;99.90
25208;DHT22;13153;52.316;21.166;2023-12-04T03:19:11;-0.70;99.90
25208;DHT22;13153;52.316;21.166;2023-12-04T03:21:37;-0.80;99.90
25208;DHT22;13153;52.316;21.166;2023-12-04T03:24:03;-0.70;99.90
25208;DHT22;13153;52.316;21.166;2023-12-04T03:26:29;-0.70;99.90
25208;DHT22;13153;52.316;21.166;2023-12-04T03:28:54;-0.70;99.90
25208;DHT22;13153;52.316;21.166;2023-12-04T03:31:21;-0.70;99.90
25208;DHT22;13153;52.316;21.166;2023-12-04T03:33:48;-0.70;99.90
25208;DHT22;13153;52.316;21.166;2023-12-04T03:36:14;-0.80;99.90
25208;DHT22;13153;52.316;21.166;2023-12-04T03:38:40;-0.80;99.90
25208;DHT22;13153;52.316;21.166;2023-12-04T03:41:13;-0.80;99.90
25208;DHT22;13153;52.316;21.166;2023-12-04T03:43:40;-0.80;99.90
25208;DHT22;13153;52.316;21.166;2023-12-04T03:46:06;-0.80;99.90
25208;DHT22;13153;52.316;21.166;2023-12-04T03:48:32;-0.80;99.90
25208;DHT22;13153;52.316;21.166;2023-12-04T03:50:58;-0.80;99.90
25208;DHT22;13153;52.316;21.166;2023-12-04T03:53:25;-0.90;99.90
25208;DHT22;13153;52.316;21.166;2023-12-04T03:55:51;-0.90;99.90
25208;DHT22;13153;52.316;21.166;2023-12-04T03:58:17;-0.80;99.90
25208;DHT22;13153;52.316;21.166;2023-12-04T04:00:43;-0.90;99.90
25208;DHT22;13153;52.316;21.166;2023-12-04T04:03:09;-0.80;99.90
25208;DHT22;13153;52.316;21.166;2023-12-04T04:05:36;-0.80;99.90
25208;DHT22;13153;52.316;21.166;2023-12-04T04:08:02;-0.90;99.90
25208;DHT22;13153;52.316;21.166;2023-12-04T04:10:28;-0.90;99.90
25208;DHT22;13153;52.316;21.166;2023-12-04T04:12:54;-0.90;99.90
25208;DHT22;13153;52.316;21.166;2023-12-04T04:15:19;-0.90;99.90
25208;DHT22;13153;52.316;21.166;2023-12-04T04:17:45;-0.90;99.90
25208;DHT22;13153;52.316;21.166;2023-12-04T04:20:11;-1.00;99.90
25208;DHT22;13153;52.316;21.166;2023-12-04T04:22:37;-1.00;99.90
25208;DHT22;13153;52.316;21.166;2023-12-04T04:25:08;-1.00;99.90
25208;DHT22;13153;52.316;21.166;2023-12-04T04:27:34;-1.00;99.90
25208;DHT22;13153;52.316;21.166;2023-12-04T04:30:00;-1.10;99.90
25208;DHT22;13153;52.316;21.166;2023-12-04T04:32:26;-1.00;99.90
25208;DHT22;13153;52.316;21.166;2023-12-04T04:34:52;-1.00;99.90
25208;DHT22;13153;52.316;21.166;2023-12-04T04:37:19;-1.10;99.90
25208;DHT22;13153;52.316;21.166;2023-12-04T04:39:45;-1.00;99.90
25208;DHT22;13153;52.316;21.166;2023-12-04T04:42:11;-1.10;99.90
25208;DHT22;13153;52.316;21.166;2023-12-04T04:44:37;-1.10;99.90
25208;DHT22;13153;52.316;21.166;2023-12-04T04:47:03;-1.10;99.90
25208;DHT22;13153;52.316;21.166;2023-12-04T04:49:28;-1.10;99.90
25208;DHT22;13153;52.316;21.166;2023-12-04T04:51:54;-1.00;99.90
25208;DHT22;13153;52.316;21.166;2023-12-04T04:54:20;-1.00;99.90
25208;DHT22;13153;52.316;21.166;2023-12-04T04:56:46;-1.10;99.90
25208;DHT22;13153;52.316;21.166;2023-12-04T04:59:11;-1.10;99.90
25208;DHT22;13153;52.316;21.166;2023-12-04T05:01:37;-1.10;99.90
25208;DHT22;13153;52.316;21.166;2023-12-04T05:04:03;-1.10;99.90
25208;DHT22;13153;52.316;21.166;2023-12-04T05:06:29;-1.10;99.90
25208;DHT22;13153;52.316;21.166;2023-12-04T05:08:56;-1.10;99.90
25208;DHT22;13153;52.316;21.166;2023-12-04T05:11:22;-1.10;99.90
25208;DHT22;13153;52.316;21.166;2023-12-04T05:13:47;-1.10;99.90
25208;DHT22;13153;52.316;21.166;2023-12-04T05:16:13;-1.10;99.90
25208;DHT22;13153;52.316;21.166;2023-12-04T05:18:39;-1.20;99.90
25208;DHT22;13153;52.316;21.166;2023-12-04T05:21:11;-1.20;99.90
25208;DHT22;13153;52.316;21.166;2023-12-04T05:23:38;-1.20;99.90
25208;DHT22;13153;52.316;21.166;2023-12-04T05:26:05;-1.20;99.90
25208;DHT22;13153;52.316;21.166;2023-12-04T05:28:32;-1.20;99.90
25208;DHT22;13153;52.316;21.166;2023-12-04T05:30:58;-1.20;99.90
25208;DHT22;13153;52.316;21.166;2023-12-04T05:33:24;-1.10;99.90
25208;DHT22;13153;52.316;21.166;2023-12-04T05:35:50;-1.10;99.90
25208;DHT22;13153;52.316;21.166;2023-12-04T05:38:19;-1.10;99.90
25208;DHT22;13153;52.316;21.166;2023-12-04T05:40:45;-1.10;99.90
25208;DHT22;13153;52.316;21.166;2023-12-04T05:43:11;-1.20;99.90
25208;DHT22;13153;52.316;21.166;2023-12-04T05:45:37;-1.10;99.90
25208;DHT22;13153;52.316;21.166;2023-12-04T05:48:04;-1.20;99.90
25208;DHT22;13153;52.316;21.166;2023-12-04T05:50:29;-1.20;99.90
25208;DHT22;13153;52.316;21.166;2023-12-04T05:52:55;-1.10;99.90
25208;DHT22;13153;52.316;21.166;2023-12-04T05:55:21;-1.10;99.90
25208;DHT22;13153;52.316;21.166;2023-12-04T05:57:47;-1.10;99.90
25208;DHT22;13153;52.316;21.166;2023-12-04T06:00:13;-1.10;99.90
25208;DHT22;13153;52.316;21.166;2023-12-04T06:02:42;-1.10;99.90
25208;DHT22;13153;52.316;21.166;2023-12-04T06:05:09;-1.10;99.90
25208;DHT22;13153;52.316;21.166;2023-12-04T06:07:35;-1.10;99.90
25208;DHT22;13153;52.316;21.166;2023-12-04T06:10:03;-1.10;99.90
25208;DHT22;13153;52.316;21.166;2023-12-04T06:12:32;-1.10;99.90
25208;DHT22;13153;52.316;21.166;2023-12-04T06:14:58;-1.10;99.90
25208;DHT22;13153;52.316;21.166;2023-12-04T06:17:24;-1.10;99.90
25208;DHT22;13153;52.316;21.166;2023-12-04T06:19:51;-1.10;99.90
25208;DHT22;13153;52.316;21.166;2023-12-04T06:22:17;-1.10;99.90
25208;DHT22;13153;52.316;21.166;2023-12-04T06:24:45;-1.00;99.90
25208;DHT22;13153;52.316;21.166;2023-12-04T06:27:16;-1.10;99.90
25208;DHT22;13153;52.316;21.166;2023-12-04T06:29:46;-1.10;99.90
25208;DHT22;13153;52.316;21.166;2023-12-04T06:32:14;-1.10;99.90
25208;DHT22;13153;52.316;21.166;2023-12-04T06:34:41;-1.10;99.90
25208;DHT22;13153;52.316;21.166;2023-12-04T06:37:11;-1.10;99.90
25208;DHT22;13153;52.316;21.166;2023-12-04T06:39:39;-1.10;99.90
25208;DHT22;13153;52.316;21.166;2023-12-04T06:42:07;-1.10;99.90
25208;DHT22;13153;52.316;21.166;2023-12-04T06:44:35;-1.10;99.90
25208;DHT22;13153;52.316;21.166;2023-12-04T06:47:01;-1.10;99.90
25208;DHT22;13153;52.316;21.166;2023-12-04T06:49:30;-1.10;99.90
25208;DHT22;13153;52.316;21.166;2023-12-04T06:51:57;-1.10;99.90
25208;DHT22;13153;52.316;21.166;2023-12-04T06:54:24;-1.10;99.90
25208;DHT22;13153;52.316;21.166;2023-12-04T06:56:50;-1.00;99.90
25208;DHT22;13153;52.316;21.166;2023-12-04T06:59:17;-1.10;97.50
25208;DHT22;13153;52.316;21.166;2023-12-04T07:01:43;-1.00;96.90
25208;DHT22;13153;52.316;21.166;2023-12-04T07:04:09;-1.00;95.30
25208;DHT22;13153;52.316;21.166;2023-12-04T07:06:39;-1.00;95.10
25208;DHT22;13153;52.316;21.166;2023-12-04T07:09:05;-1.00;91.40
25208;DHT22;13153;52.316;21.166;2023-12-04T07:11:34;-1.00;92.60
25208;DHT22;13153;52.316;21.166;2023-12-04T07:14:00;-1.00;91.00
25208;DHT22;13153;52.316;21.166;2023-12-04T07:16:26;-1.00;94.10
25208;DHT22;13153;52.316;21.166;2023-12-04T07:18:52;-1.00;99.90
25208;DHT22;13153;52.316;21.166;2023-12-04T07:21:18;-1.00;96.80
25208;DHT22;13153;52.316;21.166;2023-12-04T07:23:44;-1.00;96.30
25208;DHT22;13153;52.316;21.166;2023-12-04T07:26:09;-1.00;95.50
25208;DHT22;13153;52.316;21.166;2023-12-04T07:28:36;-0.90;97.20
25208;DHT22;13153;52.316;21.166;2023-12-04T07:31:02;-0.90;96.50
25208;DHT22;13153;52.316;21.166;2023-12-04T07:33:27;-0.90;94.70
25208;DHT22;13153;52.316;21.166;2023-12-04T07:35:54;-0.90;96.80
25208;DHT22;13153;52.316;21.166;2023-12-04T07:38:20;-0.90;95.90
25208;DHT22;13153;52.316;21.166;2023-12-04T07:40:46;-0.90;94.20
25208;DHT22;13153;52.316;21.166;2023-12-04T07:43:12;-0.90;91.70
25208;DHT22;13153;52.316;21.166;2023-12-04T07:45:40;-0.90;90.90
25208;DHT22;13153;52.316;21.166;2023-12-04T07:48:06;-0.80;85.50
25208;DHT22;13153;52.316;21.166;2023-12-04T07:50:32;-0.90;87.00
25208;DHT22;13153;52.316;21.166;2023-12-04T07:52:58;-0.90;91.10
25208;DHT22;13153;52.316;21.166;2023-12-04T07:55:24;-0.90;93.30
25208;DHT22;13153;52.316;21.166;2023-12-04T07:57:50;-0.80;92.40
25208;DHT22;13153;52.316;21.166;2023-12-04T08:00:17;-0.80;92.20
25208;DHT22;13153;52.316;21.166;2023-12-04T08:02:48;-0.80;92.20
25208;DHT22;13153;52.316;21.166;2023-12-04T08:05:14;-0.80;84.60
25208;DHT22;13153;52.316;21.166;2023-12-04T08:07:40;-0.80;76.40
25208;DHT22;13153;52.316;21.166;2023-12-04T08:10:06;-0.70;76.20
25208;DHT22;13153;52.316;21.166;2023-12-04T08:12:33;-0.80;81.40
25208;DHT22;13153;52.316;21.166;2023-12-04T08:15:02;-0.80;81.70
25208;DHT22;13153;52.316;21.166;2023-12-04T08:17:28;-0.70;87.40
25208;DHT22;13153;52.316;21.166;2023-12-04T08:19:54;-0.80;81.10
25208;DHT22;13153;52.316;21.166;2023-12-04T08:22:20;-0.70;85.10
25208;DHT22;13153;52.316;21.166;2023-12-04T08:24:45;-0.80;85.10
25208;DHT22;13153;52.316;21.166;2023-12-04T08:27:11;-0.70;91.30
25208;DHT22;13153;52.316;21.166;2023-12-04T08:29:39;-0.70;92.50
25208;DHT22;13153;52.316;21.166;2023-12-04T08:32:06;-0.70;88.40
25208;DHT22;13153;52.316;21.166;2023-12-04T08:34:32;-0.70;85.70
25208;DHT22;13153;52.316;21.166;2023-12-04T08:36:57;-0.70;74.10
25208;DHT22;13153;52.316;21.166;2023-12-04T08:39:23;-0.70;82.50
25208;DHT22;13153;52.316;21.166;2023-12-04T08:41:49;-0.70;87.10
25208;DHT22;13153;52.316;21.166;2023-12-04T08:44:15;-0.70;79.10
25208;DHT22;13153;52.316;21.166;2023-12-04T08:46:43;-0.70;67.40
25208;DHT22;13153;52.316;21.166;2023-12-04T08:49:09;-0.70;76.70
25208;DHT22;13153;52.316;21.166;2023-12-04T08:51:35;-0.70;83.50
25208;DHT22;13153;52.316;21.166;2023-12-04T08:54:01;-0.70;81.60
25208;DHT22;13153;52.316;21.166;2023-12-04T08:56:28;-0.70;73.90
25208;DHT22;13153;52.316;21.166;2023-12-04T08:58:54;-0.70;63.30
25208;DHT22;13153;52.316;21.166;2023-12-04T09:01:20;-0.70;61.90
25208;DHT22;13153;52.316;21.166;2023-12-04T09:03:46;-0.70;53.10
25208;DHT22;13153;52.316;21.166;2023-12-04T09:06:12;-0.80;68.90
25208;DHT22;13153;52.316;21.166;2023-12-04T09:08:38;-0.70;74.20
25208;DHT22;13153;52.316;21.166;2023-12-04T09:11:04;-0.80;79.10
25208;DHT22;13153;52.316;21.166;2023-12-04T09:13:29;-0.70;79.00
25208;DHT22;13153;52.316;21.166;2023-12-04T09:15:57;-0.70;79.30
25208;DHT22;13153;52.316;21.166;2023-12-04T09:18:22;-0.70;82.10
25208;DHT22;13153;52.316;21.166;2023-12-04T09:20:48;-0.70;86.70
25208;DHT22;13153;52.316;21.166;2023-12-04T09:23:14;-0.70;89.80
25208;DHT22;13153;52.316;21.166;2023-12-04T09:25:40;-0.70;84.00
25208;DHT22;13153;52.316;21.166;2023-12-04T09:28:05;-0.70;84.70
25208;DHT22;13153;52.316;21.166;2023-12-04T09:30:33;-0.70;81.50
25208;DHT22;13153;52.316;21.166;2023-12-04T09:33:01;-0.60;81.50
25208;DHT22;13153;52.316;21.166;2023-12-04T09:35:27;-0.70;66.20
25208;DHT22;13153;52.316;21.166;2023-12-04T09:37:52;-0.60;75.60
25208;DHT22;13153;52.316;21.166;2023-12-04T09:40:19;-0.70;78.10
25208;DHT22;13153;52.316;21.166;2023-12-04T09:42:45;-0.60;84.70
25208;DHT22;13153;52.316;21.166;2023-12-04T09:45:12;-0.60;68.60
25208;DHT22;13153;52.316;21.166;2023-12-04T09:47:38;-0.60;63.80
25208;DHT22;13153;52.316;21.166;2023-12-04T09:50:05;-0.60;60.60
25208;DHT22;13153;52.316;21.166;2023-12-04T09:52:34;-0.60;67.30
25208;DHT22;13153;52.316;21.166;2023-12-04T09:55:01;-0.50;69.20
25208;DHT22;13153;52.316;21.166;2023-12-04T09:57:27;-0.50;58.40
25208;DHT22;13153;52.316;21.166;2023-12-04T09:59:53;-0.50;53.00
25208;DHT22;13153;52.316;21.166;2023-12-04T10:02:20;-0.50;52.40
25208;DHT22;13153;52.316;21.166;2023-12-04T10:04:47;-0.50;55.20
25208;DHT22;13153;52.316;21.166;2023-12-04T10:07:13;-0.50;52.60
25208;DHT22;13153;52.316;21.166;2023-12-04T10:09:40;-0.50;48.00
25208;DHT22;13153;52.316;21.166;2023-12-04T10:12:06;-0.50;36.80
25208;DHT22;13153;52.316;21.166;2023-12-04T10:14:32;-0.50;45.50
25208;DHT22;13153;52.316;21.166;2023-12-04T10:16:58;-0.50;41.90
25208;DHT22;13153;52.316;21.166;2023-12-04T10:19:25;-0.50;41.90
25208;DHT22;13153;52.316;21.166;2023-12-04T10:21:55;-0.50;40.00
25208;DHT22;13153;52.316;21.166;2023-12-04T10:26:58;-0.50;35.80
25208;DHT22;13153;52.316;21.166;2023-12-04T10:29:27;-0.50;36.70
25208;DHT22;13153;52.316;21.166;2023-12-04T10:31:55;-0.50;35.20
25208;DHT22;13153;52.316;21.166;2023-12-04T10:34:25;-0.50;42.70
25208;DHT22;13153;52.316;21.166;2023-12-04T10:36:52;-0.50;23.00
25208;DHT22;13153;52.316;21.166;2023-12-04T10:39:18;-0.50;28.80
25208;DHT22;13153;52.316;21.166;2023-12-04T10:41:44;-0.50;23.60
25208;DHT22;13153;52.316;21.166;2023-12-04T10:44:16;-0.50;22.70
25208;DHT22;13153;52.316;21.166;2023-12-04T10:46:45;-0.50;24.40
25208;DHT22;13153;52.316;21.166;2023-12-04T10:49:13;-0.50;26.90
25208;DHT22;13153;52.316;21.166;2023-12-04T10:51:39;-0.60;32.30
25208;DHT22;13153;52.316;21.166;2023-12-04T10:54:06;-0.60;47.90
25208;DHT22;13153;52.316;21.166;2023-12-04T10:56:36;-0.50;54.00
25208;DHT22;13153;52.316;21.166;2023-12-04T10:59:10;-0.50;43.30
25208;DHT22;13153;52.316;21.166;2023-12-04T11:01:42;-0.50;29.70
25208;DHT22;13153;52.316;21.166;2023-12-04T11:04:16;-0.50;36.20
25208;DHT22;13153;52.316;21.166;2023-12-04T11:06:48;-0.50;29.80
25208;DHT22;13153;52.316;21.166;2023-12-04T11:09:17;-0.40;34.40
25208;DHT22;13153;52.316;21.166;2023-12-04T11:11:48;-0.40;36.20
25208;DHT22;13153;52.316;21.166;2023-12-04T11:14:22;-0.40;26.80
25208;DHT22;13153;52.316;21.166;2023-12-04T11:16:56;-0.30;31.90
25208;DHT22;13153;52.316;21.166;2023-12-04T11:22:17;-0.30;24.20
25208;DHT22;13153;52.316;21.166;2023-12-04T11:24:48;-0.30;18.00
25208;DHT22;13153;52.316;21.166;2023-12-04T11:27:19;-0.30;15.90
25208;DHT22;13153;52.316;21.166;2023-12-04T11:29:46;-0.20;18.40
25208;DHT22;13153;52.316;21.166;2023-12-04T11:32:16;-0.10;20.20
25208;DHT22;13153;52.316;21.166;2023-12-04T11:34:55;-0.10;4.00
25208;DHT22;13153;52.316;21.166;2023-12-04T11:37:24;-0.10;1.90
25208;DHT22;13153;52.316;21.166;2023-12-04T11:39:50;-0.10;1.00
25208;DHT22;13153;52.316;21.166;2023-12-04T11:42:23;-0.10;1.00
25208;DHT22;13153;52.316;21.166;2023-12-04T11:44:50;-0.10;1.00
25208;DHT22;13153;52.316;21.166;2023-12-04T11:47:23;0.00;6.70
25208;DHT22;13153;52.316;21.166;2023-12-04T11:49:50;0.00;1.00
25208;DHT22;13153;52.316;21.166;2023-12-04T11:52:15;0.10;1.00
25208;DHT22;13153;52.316;21.166;2023-12-04T11:55:01;0.10;1.00
25208;DHT22;13153;52.316;21.166;2023-12-04T11:57:35;0.10;1.00
25208;DHT22;13153;52.316;21.166;2023-12-04T12:02:48;0.10;1.00
25208;DHT22;13153;52.316;21.166;2023-12-04T12:05:14;0.10;1.00
25208;DHT22;13153;52.316;21.166;2023-12-04T12:07:41;0.10;1.00
25208;DHT22;13153;52.316;21.166;2023-12-04T12:10:08;0.10;1.00
25208;DHT22;13153;52.316;21.166;2023-12-04T12:12:36;0.10;1.00
25208;DHT22;13153;52.316;21.166;2023-12-04T12:15:03;0.10;1.00
25208;DHT22;13153;52.316;21.166;2023-12-04T12:17:30;0.10;1.00
25208;DHT22;13153;52.316;21.166;2023-12-04T12:19:56;0.10;5.60
25208;DHT22;13153;52.316;21.166;2023-12-04T12:22:24;0.20;2.00
25208;DHT22;13153;52.316;21.166;2023-12-04T12:24:51;0.20;1.00
25208;DHT22;13153;52.316;21.166;2023-12-04T12:27:16;0.20;1.00
25208;DHT22;13153;52.316;21.166;2023-12-04T12:29:42;0.20;1.00
25208;DHT22;13153;52.316;21.166;2023-12-04T12:32:08;0.20;1.00
25208;DHT22;13153;52.316;21.166;2023-12-04T12:34:35;0.10;1.00
25208;DHT22;13153;52.316;21.166;2023-12-04T12:37:04;0.10;1.00
25208;DHT22;13153;52.316;21.166;2023-12-04T12:39:31;0.10;1.00
25208;DHT22;13153;52.316;21.166;2023-12-04T12:41:58;0.10;1.00
25208;DHT22;13153;52.316;21.166;2023-12-04T12:44:24;0.10;1.00
25208;DHT22;13153;52.316;21.166;2023-12-04T12:46:51;0.10;1.00
25208;DHT22;13153;52.316;21.166;2023-12-04T12:49:18;0.10;1.00
25208;DHT22;13153;52.316;21.166;2023-12-04T12:51:47;0.10;1.00
25208;DHT22;13153;52.316;21.166;2023-12-04T12:54:13;0.10;1.00
25208;DHT22;13153;52.316;21.166;2023-12-04T12:56:39;0.00;1.00
25208;DHT22;13153;52.316;21.166;2023-12-04T12:59:05;0.10;1.00
25208;DHT22;13153;52.316;21.166;2023-12-04T13:01:32;0.10;1.00
25208;DHT22;13153;52.316;21.166;2023-12-04T13:03:59;0.10;1.00
25208;DHT22;13153;52.316;21.166;2023-12-04T13:06:25;0.00;1.00
25208;DHT22;13153;52.316;21.166;2023-12-04T13:08:51;0.10;1.00
25208;DHT22;13153;52.316;21.166;2023-12-04T13:11:17;0.10;1.00
25208;DHT22;13153;52.316;21.166;2023-12-04T13:13:44;0.10;1.00
25208;DHT22;13153;52.316;21.166;2023-12-04T13:16:10;0.10;1.00
25208;DHT22;13153;52.316;21.166;2023-12-04T13:18:35;0.10;1.00
25208;DHT22;13153;52.316;21.166;2023-12-04T13:21:03;0.10;1.00
25208;DHT22;13153;52.316;21.166;2023-12-04T13:23:29;0.10;1.00
25208;DHT22;13153;52.316;21.166;2023-12-04T13:25:55;0.00;1.00
25208;DHT22;13153;52.316;21.166;2023-12-04T13:28:21;0.00;1.00
25208;DHT22;13153;52.316;21.166;2023-12-04T13:30:46;0.10;1.00
25208;DHT22;13153;52.316;21.166;2023-12-04T13:33:12;0.00;1.00
25208;DHT22;13153;52.316;21.166;2023-12-04T13:35:38;0.00;1.00
25208;DHT22;13153;52.316;21.166;2023-12-04T13:38:05;0.00;1.00
25208;DHT22;13153;52.316;21.166;2023-12-04T13:40:38;0.00;1.00
25208;DHT22;13153;52.316;21.166;2023-12-04T13:43:05;0.00;1.00
25208;DHT22;13153;52.316;21.166;2023-12-04T13:45:49;0.00;1.00
25208;DHT22;13153;52.316;21.166;2023-12-04T13:48:16;0.00;1.00
25208;DHT22;13153;52.316;21.166;2023-12-04T13:50:43;0.00;1.00
25208;DHT22;13153;52.316;21.166;2023-12-04T13:53:09;0.00;1.00
25208;DHT22;13153;52.316;21.166;2023-12-04T13:55:35;0.00;1.00
25208;DHT22;13153;52.316;21.166;2023-12-04T13:58:32;0.00;1.00
25208;DHT22;13153;52.316;21.166;2023-12-04T14:01:05;-0.10;1.00
25208;DHT22;13153;52.316;21.166;2023-12-04T14:03:42;-0.10;7.20
25208;DHT22;13153;52.316;21.166;2023-12-04T14:06:09;-0.10;12.70
25208;DHT22;13153;52.316;21.166;2023-12-04T14:08:35;-0.10;16.50
25208;DHT22;13153;52.316;21.166;2023-12-04T14:11:03;-0.10;22.40
25208;DHT22;13153;52.316;21.166;2023-12-04T14:13:31;-0.10;16.70
25208;DHT22;13153;52.316;21.166;2023-12-04T14:15:58;-0.10;16.40
25208;DHT22;13153;52.316;21.166;2023-12-04T14:18:24;-0.20;16.00
25208;DHT22;13153;52.316;21.166;2023-12-04T14:20:49;-0.10;20.40
25208;DHT22;13153;52.316;21.166;2023-12-04T14:23:16;-0.20;22.90
25208;DHT22;13153;52.316;21.166;2023-12-04T14:25:47;-0.20;25.60
25208;DHT22;13153;52.316;21.166;2023-12-04T14:28:13;-0.20;27.00
25208;DHT22;13153;52.316;21.166;2023-12-04T14:30:38;-0.20;29.80
25208;DHT22;13153;52.316;21.166;2023-12-04T14:33:05;-0.20;33.00
25208;DHT22;13153;52.316;21.166;2023-12-04T14:35:32;-0.20;26.00
25208;DHT22;13153;52.316;21.166;2023-12-04T14:37:57;-0.20;26.20
25208;DHT22;13153;52.316;21.166;2023-12-04T14:40:23;-0.20;29.10
25208;DHT22;13153;52.316;21.166;2023-12-04T14:42:49;-0.20;29.00
25208;DHT22;13153;52.316;21.166;2023-12-04T14:45:16;-0.20;25.90
25208;DHT22;13153;52.316;21.166;2023-12-04T14:47:42;-0.30;26.40
25208;DHT22;13153;52.316;21.166;2023-12-04T14:50:09;-0.30;29.60
25208;DHT22;13153;52.316;21.166;2023-12-04T14:52:35;-0.30;30.60
25208;DHT22;13153;52.316;21.166;2023-12-04T14:55:10;-0.30;34.30
25208;DHT22;13153;52.316;21.166;2023-12-04T14:57:35;-0.30;33.20
25208;DHT22;13153;52.316;21.166;2023-12-04T15:00:08;-0.30;33.50
25208;DHT22;13153;52.316;21.166;2023-12-04T15:02:53;-0.30;45.90
25208;DHT22;13153;52.316;21.166;2023-12-04T15:05:37;-0.20;41.40
25208;DHT22;13153;52.316;21.166;2023-12-04T15:08:23;-0.20;61.20
25208;DHT22;13153;52.316;21.166;2023-12-04T15:11:18;-0.20;56.10
25208;DHT22;13153;52.316;21.166;2023-12-04T15:13:49;-0.10;42.30
25208;DHT22;13153;52.316;21.166;2023-12-04T15:16:29;-0.20;34.70
25208;DHT22;13153;52.316;21.166;2023-12-04T15:19:06;-0.20;29.20
25208;DHT22;13153;52.316;21.166;2023-12-04T15:21:52;-0.20;33.90
25208;DHT22;13153;52.316;21.166;2023-12-04T15:24:18;-0.10;63.80
25208;DHT22;13153;52.316;21.166;2023-12-04T15:26:44;0.00;83.40
25208;DHT22;13153;52.316;21.166;2023-12-04T15:29:10;0.00;53.30